sensor_id;sensor_type;location;lat;lon;timestamp;temperature;humidity
25300;DHT22;13241;51.208;4.432;2023-04-09T00:00:42;9.30;99.90
25300;DHT22;13241;51.208;4.432;2023-04-09T00:03:09;9.30;99.90
25300;DHT22;13241;51.208;4.432;2023-04-09T00:05:40;9.30;99.90
25300;DHT22;13241;51.208;4.432;2023-04-09T00:08:07;9.30;99.90
25300;DHT22;13241;51.208;4.432;2023-04-09T00:10:34;9.30;99.90
25300;DHT22;13241;51.208;4.432;2023-04-09T00:13:00;9.20;99.90
25300;DHT22;13241;51.208;4.432;2023-04-09T00:15:27;9.20;99.90
25300;DHT22;13241;51.208;4.432;2023-04-09T00:17:58;9.30;99.90
25300;DHT22;13241;51.208;4.432;2023-04-09T00:20:25;9.30;99.90
25300;DHT22;13241;51.208;4.432;2023-04-09T00:22:51;9.40;99.90
25300;DHT22;13241;51.208;4.432;2023-04-09T00:25:18;9.40;99.90
25300;DHT22;13241;51.208;4.432;2023-04-09T00:27:45;9.50;99.90
25300;DHT22;13241;51.208;4.432;2023-04-09T00:30:12;9.60;99.90
25300;DHT22;13241;51.208;4.432;2023-04-09T00:32:39;9.60;99.90
25300;DHT22;13241;51.208;4.432;2023-04-09T00:35:07;9.60;99.90
25300;DHT22;13241;51.208;4.432;2023-04-09T00:37:34;9.60;99.90
25300;DHT22;13241;51.208;4.432;2023-04-09T00:40:01;9.50;99.90
25300;DHT22;13241;51.208;4.432;2023-04-09T00:42:32;9.50;99.90
25300;DHT22;13241;51.208;4.432;2023-04-09T00:45:00;9.40;99.90
25300;DHT22;13241;51.208;4.432;2023-04-09T00:47:27;9.30;99.90
25300;DHT22;13241;51.208;4.432;2023-04-09T00:49:54;9.20;99.90
25300;DHT22;13241;51.208;4.432;2023-04-09T00:52:22;9.30;99.90
25300;DHT22;13241;51.208;4.432;2023-04-09T00:54:50;9.30;99.90
25300;DHT22;13241;51.208;4.432;2023-04-09T00:57:18;9.30;99.90
25300;DHT22;13241;51.208;4.432;2023-04-09T00:59:45;9.20;99.90
25300;DHT22;13241;51.208;4.432;2023-04-09T01:02:12;9.20;99.90
25300;DHT22;13241;51.208;4.432;2023-04-09T01:04:40;9.20;99.90
25300;DHT22;13241;51.208;4.432;2023-04-09T01:15:42;9.10;99.90
25300;DHT22;13241;51.208;4.432;2023-04-09T01:18:15;9.10;99.90
25300;DHT22;13241;51.208;4.432;2023-04-09T01:20:54;9.10;99.90
25300;DHT22;13241;51.208;4.432;2023-04-09T01:23:46;9.20;99.90
25300;DHT22;13241;51.208;4.432;2023-04-09T01:29:49;9.20;99.90
25300;DHT22;13241;51.208;4.432;2023-04-09T01:32:20;9.20;99.90
25300;DHT22;13241;51.208;4.432;2023-04-09T01:34:48;9.20;99.90
25300;DHT22;13241;51.208;4.432;2023-04-09T01:37:17;9.10;99.90
25300;DHT22;13241;51.208;4.432;2023-04-09T01:39:45;9.10;99.90
25300;DHT22;13241;51.208;4.432;2023-04-09T01:42:14;9.10;99.90
25300;DHT22;13241;51.208;4.432;2023-04-09T01:44:44;9.20;99.90
25300;DHT22;13241;51.208;4.432;2023-04-09T01:47:12;9.20;99.90
25300;DHT22;13241;51.208;4.432;2023-04-09T01:49:40;9.20;99.90
25300;DHT22;13241;51.208;4.432;2023-04-09T01:52:07;9.30;99.90
25300;DHT22;13241;51.208;4.432;2023-04-09T01:54:35;9.20;99.90
25300;DHT22;13241;51.208;4.432;2023-04-09T01:57:01;9.10;99.90
25300;DHT22;13241;51.208;4.432;2023-04-09T01:59:28;9.30;99.90
25300;DHT22;13241;51.208;4.432;2023-04-09T02:02:00;9.20;99.90
25300;DHT22;13241;51.208;4.432;2023-04-09T02:04:40;9.10;99.90
25300;DHT22;13241;51.208;4.432;2023-04-09T02:09:37;9.10;99.90
25300;DHT22;13241;51.208;4.432;2023-04-09T02:12:08;9.10;99.90
25300;DHT22;13241;51.208;4.432;2023-04-09T02:14:36;9.20;99.90
25300;DHT22;13241;51.208;4.432;2023-04-09T02:17:04;9.20;99.90
25300;DHT22;13241;51.208;4.432;2023-04-09T02:19:41;9.20;99.90
25300;DHT22;13241;51.208;4.432;2023-04-09T02:22:09;9.10;99.90
25300;DHT22;13241;51.208;4.432;2023-04-09T02:24:36;9.10;99.90
25300;DHT22;13241;51.208;4.432;2023-04-09T02:27:04;9.20;99.90
25300;DHT22;13241;51.208;4.432;2023-04-09T02:29:32;9.30;99.90
25300;DHT22;13241;51.208;4.432;2023-04-09T02:31:58;9.30;99.90
25300;DHT22;13241;51.208;4.432;2023-04-09T02:34:26;9.40;99.90
25300;DHT22;13241;51.208;4.432;2023-04-09T02:36:52;9.50;99.90
25300;DHT22;13241;51.208;4.432;2023-04-09T02:39:19;9.60;99.90
25300;DHT22;13241;51.208;4.432;2023-04-09T02:41:46;9.70;99.90
25300;DHT22;13241;51.208;4.432;2023-04-09T02:44:13;9.70;99.90
25300;DHT22;13241;51.208;4.432;2023-04-09T02:46:41;9.80;99.90
25300;DHT22;13241;51.208;4.432;2023-04-09T02:49:08;9.80;99.90
25300;DHT22;13241;51.208;4.432;2023-04-09T02:51:35;9.80;99.90
25300;DHT22;13241;51.208;4.432;2023-04-09T02:54:02;9.70;99.90
25300;DHT22;13241;51.208;4.432;2023-04-09T02:56:29;9.70;99.90
25300;DHT22;13241;51.208;4.432;2023-04-09T02:58:56;9.80;99.90
25300;DHT22;13241;51.208;4.432;2023-04-09T03:01:23;9.80;99.90
25300;DHT22;13241;51.208;4.432;2023-04-09T03:03:50;9.90;99.90
25300;DHT22;13241;51.208;4.432;2023-04-09T03:06:17;10.00;99.90
25300;DHT22;13241;51.208;4.432;2023-04-09T03:08:44;10.00;99.90
25300;DHT22;13241;51.208;4.432;2023-04-09T03:11:11;10.00;99.90
25300;DHT22;13241;51.208;4.432;2023-04-09T03:13:38;10.00;99.90
25300;DHT22;13241;51.208;4.432;2023-04-09T03:16:05;10.10;99.90
25300;DHT22;13241;51.208;4.432;2023-04-09T03:18:32;10.00;99.90
25300;DHT22;13241;51.208;4.432;2023-04-09T03:20:58;10.00;99.90
25300;DHT22;13241;51.208;4.432;2023-04-09T03:23:27;10.10;99.90
25300;DHT22;13241;51.208;4.432;2023-04-09T03:26:04;10.10;99.90
25300;DHT22;13241;51.208;4.432;2023-04-09T03:28:42;10.10;99.90
25300;DHT22;13241;51.208;4.432;2023-04-09T03:31:09;10.20;99.90
25300;DHT22;13241;51.208;4.432;2023-04-09T03:33:38;10.10;99.90
25300;DHT22;13241;51.208;4.432;2023-04-09T03:36:06;10.10;99.90
25300;DHT22;13241;51.208;4.432;2023-04-09T03:38:54;10.10;99.90
25300;DHT22;13241;51.208;4.432;2023-04-09T03:41:29;10.10;99.90
25300;DHT22;13241;51.208;4.432;2023-04-09T03:43:58;10.10;99.90
25300;DHT22;13241;51.208;4.432;2023-04-09T03:46:30;10.10;99.90
25300;DHT22;13241;51.208;4.432;2023-04-09T03:48:59;10.20;99.90
25300;DHT22;13241;51.208;4.432;2023-04-09T03:51:34;10.10;99.90
25300;DHT22;13241;51.208;4.432;2023-04-09T03:54:02;10.20;99.90
25300;DHT22;13241;51.208;4.432;2023-04-09T03:56:29;10.10;99.90
25300;DHT22;13241;51.208;4.432;2023-04-09T03:58:57;10.20;99.90
25300;DHT22;13241;51.208;4.432;2023-04-09T04:01:32;10.10;99.90
25300;DHT22;13241;51.208;4.432;2023-04-09T04:04:00;10.10;99.90
25300;DHT22;13241;51.208;4.432;2023-04-09T04:06:33;10.10;99.90
25300;DHT22;13241;51.208;4.432;2023-04-09T04:09:11;10.20;99.90
25300;DHT22;13241;51.208;4.432;2023-04-09T04:11:46;10.30;99.90
25300;DHT22;13241;51.208;4.432;2023-04-09T04:14:14;10.30;99.90
25300;DHT22;13241;51.208;4.432;2023-04-09T04:16:44;10.20;99.90
25300;DHT22;13241;51.208;4.432;2023-04-09T04:19:15;10.20;99.90
25300;DHT22;13241;51.208;4.432;2023-04-09T04:21:46;10.20;99.90
25300;DHT22;13241;51.208;4.432;2023-04-09T04:24:13;10.30;99.90
25300;DHT22;13241;51.208;4.432;2023-04-09T04:26:40;10.40;99.90
25300;DHT22;13241;51.208;4.432;2023-04-09T04:29:09;10.30;99.90
25300;DHT22;13241;51.208;4.432;2023-04-09T04:31:52;10.40;99.90
25300;DHT22;13241;51.208;4.432;2023-04-09T04:34:22;10.30;99.90
25300;DHT22;13241;51.208;4.432;2023-04-09T04:36:57;10.30;99.90
25300;DHT22;13241;51.208;4.432;2023-04-09T04:39:29;10.30;99.90
25300;DHT22;13241;51.208;4.432;2023-04-09T04:42:01;10.30;99.90
25300;DHT22;13241;51.208;4.432;2023-04-09T04:44:29;10.30;99.90
25300;DHT22;13241;51.208;4.432;2023-04-09T04:47:08;10.40;99.90
25300;DHT22;13241;51.208;4.432;2023-04-09T04:49:35;10.40;99.90
25300;DHT22;13241;51.208;4.432;2023-04-09T04:52:05;10.30;99.90
25300;DHT22;13241;51.208;4.432;2023-04-09T04:54:33;10.30;99.90
25300;DHT22;13241;51.208;4.432;2023-04-09T04:57:00;10.30;99.90
25300;DHT22;13241;51.208;4.432;2023-04-09T04:59:36;10.20;99.90
25300;DHT22;13241;51.208;4.432;2023-04-09T05:02:06;10.20;99.90
25300;DHT22;13241;51.208;4.432;2023-04-09T05:04:43;10.20;99.90
25300;DHT22;13241;51.208;4.432;2023-04-09T05:07:13;10.10;99.90
25300;DHT22;13241;51.208;4.432;2023-04-09T05:09:47;10.10;99.90
25300;DHT22;13241;51.208;4.432;2023-04-09T05:12:14;10.10;99.90
25300;DHT22;13241;51.208;4.432;2023-04-09T05:14:47;10.10;99.90
25300;DHT22;13241;51.208;4.432;2023-04-09T05:17:14;10.00;99.90
25300;DHT22;13241;51.208;4.432;2023-04-09T05:19:43;10.00;99.90
25300;DHT22;13241;51.208;4.432;2023-04-09T05:22:11;10.00;99.90
25300;DHT22;13241;51.208;4.432;2023-04-09T05:24:38;10.00;99.90
25300;DHT22;13241;51.208;4.432;2023-04-09T05:27:05;10.10;99.90
25300;DHT22;13241;51.208;4.432;2023-04-09T05:29:32;10.10;99.90
25300;DHT22;13241;51.208;4.432;2023-04-09T05:31:59;10.10;99.90
25300;DHT22;13241;51.208;4.432;2023-04-09T05:34:31;10.10;99.90
25300;DHT22;13241;51.208;4.432;2023-04-09T05:36:58;10.10;99.90
25300;DHT22;13241;51.208;4.432;2023-04-09T05:39:25;10.20;99.90
25300;DHT22;13241;51.208;4.432;2023-04-09T05:41:52;10.20;99.90
25300;DHT22;13241;51.208;4.432;2023-04-09T05:44:20;10.20;99.90
25300;DHT22;13241;51.208;4.432;2023-04-09T05:46:49;10.20;99.90
25300;DHT22;13241;51.208;4.432;2023-04-09T05:49:22;10.30;99.90
25300;DHT22;13241;51.208;4.432;2023-04-09T05:51:51;10.30;99.90
25300;DHT22;13241;51.208;4.432;2023-04-09T05:54:24;10.30;99.90
25300;DHT22;13241;51.208;4.432;2023-04-09T05:56:51;10.20;99.90
25300;DHT22;13241;51.208;4.432;2023-04-09T05:59:19;10.20;99.90
25300;DHT22;13241;51.208;4.432;2023-04-09T06:01:46;10.30;99.90
25300;DHT22;13241;51.208;4.432;2023-04-09T06:04:13;10.30;99.90
25300;DHT22;13241;51.208;4.432;2023-04-09T06:06:40;10.30;99.90
25300;DHT22;13241;51.208;4.432;2023-04-09T06:09:07;10.30;99.90
25300;DHT22;13241;51.208;4.432;2023-04-09T06:11:36;10.30;99.90
25300;DHT22;13241;51.208;4.432;2023-04-09T06:14:04;10.40;99.90
25300;DHT22;13241;51.208;4.432;2023-04-09T06:16:32;10.30;99.90
25300;DHT22;13241;51.208;4.432;2023-04-09T06:18:59;10.40;99.90
25300;DHT22;13241;51.208;4.432;2023-04-09T06:21:25;10.40;99.90
25300;DHT22;13241;51.208;4.432;2023-04-09T06:23:52;10.50;99.90
25300;DHT22;13241;51.208;4.432;2023-04-09T06:26:20;10.50;99.90
25300;DHT22;13241;51.208;4.432;2023-04-09T06:28:47;10.50;99.90
25300;DHT22;13241;51.208;4.432;2023-04-09T06:31:13;10.50;99.90
25300;DHT22;13241;51.208;4.432;2023-04-09T06:33:41;10.50;99.90
25300;DHT22;13241;51.208;4.432;2023-04-09T06:36:08;10.50;99.90
25300;DHT22;13241;51.208;4.432;2023-04-09T06:38:35;10.30;99.90
25300;DHT22;13241;51.208;4.432;2023-04-09T06:41:01;10.40;99.90
25300;DHT22;13241;51.208;4.432;2023-04-09T06:43:29;10.50;99.90
25300;DHT22;13241;51.208;4.432;2023-04-09T06:45:57;10.50;99.90
25300;DHT22;13241;51.208;4.432;2023-04-09T06:48:24;10.60;99.90
25300;DHT22;13241;51.208;4.432;2023-04-09T06:50:50;10.60;99.90
25300;DHT22;13241;51.208;4.432;2023-04-09T06:53:17;10.70;99.90
25300;DHT22;13241;51.208;4.432;2023-04-09T06:55:44;10.70;99.90
25300;DHT22;13241;51.208;4.432;2023-04-09T06:58:11;10.60;99.90
25300;DHT22;13241;51.208;4.432;2023-04-09T07:00:38;10.70;99.90
25300;DHT22;13241;51.208;4.432;2023-04-09T07:03:05;10.60;99.90
25300;DHT22;13241;51.208;4.432;2023-04-09T07:05:35;10.70;99.90
25300;DHT22;13241;51.208;4.432;2023-04-09T07:08:02;10.80;99.90
25300;DHT22;13241;51.208;4.432;2023-04-09T07:10:29;11.00;99.90
25300;DHT22;13241;51.208;4.432;2023-04-09T07:12:56;11.00;99.90
25300;DHT22;13241;51.208;4.432;2023-04-09T07:15:24;11.10;99.90
25300;DHT22;13241;51.208;4.432;2023-04-09T07:17:51;11.20;99.90
25300;DHT22;13241;51.208;4.432;2023-04-09T07:20:18;11.10;99.90
25300;DHT22;13241;51.208;4.432;2023-04-09T07:22:45;11.00;99.90
25300;DHT22;13241;51.208;4.432;2023-04-09T07:25:11;11.00;99.90
25300;DHT22;13241;51.208;4.432;2023-04-09T07:27:38;11.00;99.90
25300;DHT22;13241;51.208;4.432;2023-04-09T07:30:06;11.10;99.90
25300;DHT22;13241;51.208;4.432;2023-04-09T07:32:33;11.20;99.90
25300;DHT22;13241;51.208;4.432;2023-04-09T07:34:59;11.20;99.90
25300;DHT22;13241;51.208;4.432;2023-04-09T07:37:27;11.20;99.90
25300;DHT22;13241;51.208;4.432;2023-04-09T07:39:54;11.40;99.90
25300;DHT22;13241;51.208;4.432;2023-04-09T07:42:22;11.50;99.90
25300;DHT22;13241;51.208;4.432;2023-04-09T07:44:49;11.50;99.90
25300;DHT22;13241;51.208;4.432;2023-04-09T07:47:16;11.50;99.90
25300;DHT22;13241;51.208;4.432;2023-04-09T07:49:42;11.60;99.90
25300;DHT22;13241;51.208;4.432;2023-04-09T07:52:09;11.50;99.90
25300;DHT22;13241;51.208;4.432;2023-04-09T07:54:36;11.50;99.90
25300;DHT22;13241;51.208;4.432;2023-04-09T07:57:03;11.60;99.90
25300;DHT22;13241;51.208;4.432;2023-04-09T07:59:29;11.90;99.90
25300;DHT22;13241;51.208;4.432;2023-04-09T08:01:57;12.10;99.90
25300;DHT22;13241;51.208;4.432;2023-04-09T08:04:24;12.30;99.90
25300;DHT22;13241;51.208;4.432;2023-04-09T08:06:52;12.40;99.90
25300;DHT22;13241;51.208;4.432;2023-04-09T08:09:20;12.50;99.90
25300;DHT22;13241;51.208;4.432;2023-04-09T08:11:48;12.60;99.90
25300;DHT22;13241;51.208;4.432;2023-04-09T08:14:16;12.70;99.90
25300;DHT22;13241;51.208;4.432;2023-04-09T08:16:45;12.70;99.90
25300;DHT22;13241;51.208;4.432;2023-04-09T08:19:14;12.80;99.90
25300;DHT22;13241;51.208;4.432;2023-04-09T08:21:42;12.90;99.90
25300;DHT22;13241;51.208;4.432;2023-04-09T08:24:12;12.90;99.90
25300;DHT22;13241;51.208;4.432;2023-04-09T08:26:39;12.90;99.90
25300;DHT22;13241;51.208;4.432;2023-04-09T08:29:07;12.80;99.90
25300;DHT22;13241;51.208;4.432;2023-04-09T08:31:34;12.90;99.90
25300;DHT22;13241;51.208;4.432;2023-04-09T08:34:03;13.00;99.90
25300;DHT22;13241;51.208;4.432;2023-04-09T08:36:30;13.10;99.90
25300;DHT22;13241;51.208;4.432;2023-04-09T08:38:58;13.20;99.90
25300;DHT22;13241;51.208;4.432;2023-04-09T08:41:27;13.10;99.90
25300;DHT22;13241;51.208;4.432;2023-04-09T08:43:55;13.00;99.90
25300;DHT22;13241;51.208;4.432;2023-04-09T08:46:25;13.10;99.90
25300;DHT22;13241;51.208;4.432;2023-04-09T08:48:52;13.40;99.90
25300;DHT22;13241;51.208;4.432;2023-04-09T08:51:21;13.60;99.90
25300;DHT22;13241;51.208;4.432;2023-04-09T08:53:54;13.70;99.90
25300;DHT22;13241;51.208;4.432;2023-04-09T08:56:22;13.80;99.90
25300;DHT22;13241;51.208;4.432;2023-04-09T08:58:49;13.90;99.90
25300;DHT22;13241;51.208;4.432;2023-04-09T09:01:25;14.20;99.90
25300;DHT22;13241;51.208;4.432;2023-04-09T09:04:06;14.30;99.90
25300;DHT22;13241;51.208;4.432;2023-04-09T09:06:35;14.50;99.90
25300;DHT22;13241;51.208;4.432;2023-04-09T09:09:16;14.60;99.90
25300;DHT22;13241;51.208;4.432;2023-04-09T09:11:47;14.40;99.90
25300;DHT22;13241;51.208;4.432;2023-04-09T09:14:17;14.50;99.90
25300;DHT22;13241;51.208;4.432;2023-04-09T09:22:03;15.10;99.90
25300;DHT22;13241;51.208;4.432;2023-04-09T09:24:30;15.10;99.90
25300;DHT22;13241;51.208;4.432;2023-04-09T09:27:01;14.80;99.90
25300;DHT22;13241;51.208;4.432;2023-04-09T09:29:28;14.90;99.90
25300;DHT22;13241;51.208;4.432;2023-04-09T09:31:55;15.20;99.90
25300;DHT22;13241;51.208;4.432;2023-04-09T09:34:23;15.40;99.90
25300;DHT22;13241;51.208;4.432;2023-04-09T09:36:51;15.70;99.90
25300;DHT22;13241;51.208;4.432;2023-04-09T09:39:18;15.60;99.90
25300;DHT22;13241;51.208;4.432;2023-04-09T09:41:45;15.50;99.90
25300;DHT22;13241;51.208;4.432;2023-04-09T09:44:30;15.50;99.90
25300;DHT22;13241;51.208;4.432;2023-04-09T09:46:58;15.40;99.90
25300;DHT22;13241;51.208;4.432;2023-04-09T09:49:25;15.60;99.90
25300;DHT22;13241;51.208;4.432;2023-04-09T09:51:52;15.70;99.90
25300;DHT22;13241;51.208;4.432;2023-04-09T09:54:24;15.60;99.90
25300;DHT22;13241;51.208;4.432;2023-04-09T09:56:54;15.60;99.90
25300;DHT22;13241;51.208;4.432;2023-04-09T09:59:28;15.70;99.90
25300;DHT22;13241;51.208;4.432;2023-04-09T10:01:59;15.70;99.90
25300;DHT22;13241;51.208;4.432;2023-04-09T10:04:33;15.70;99.90
25300;DHT22;13241;51.208;4.432;2023-04-09T10:07:03;15.70;99.90
25300;DHT22;13241;51.208;4.432;2023-04-09T10:09:34;15.90;99.90
25300;DHT22;13241;51.208;4.432;2023-04-09T10:12:05;16.00;99.90
25300;DHT22;13241;51.208;4.432;2023-04-09T10:14:33;15.90;99.90
25300;DHT22;13241;51.208;4.432;2023-04-09T10:17:01;15.80;99.90
25300;DHT22;13241;51.208;4.432;2023-04-09T10:19:39;15.90;99.90
25300;DHT22;13241;51.208;4.432;2023-04-09T10:22:10;16.20;99.90
25300;DHT22;13241;51.208;4.432;2023-04-09T10:24:37;16.20;99.90
25300;DHT22;13241;51.208;4.432;2023-04-09T10:27:15;16.20;99.90
25300;DHT22;13241;51.208;4.432;2023-04-09T10:29:47;16.20;99.90
25300;DHT22;13241;51.208;4.432;2023-04-09T10:32:19;16.20;99.90
25300;DHT22;13241;51.208;4.432;2023-04-09T10:34:48;16.40;99.90
25300;DHT22;13241;51.208;4.432;2023-04-09T10:37:20;16.40;99.90
25300;DHT22;13241;51.208;4.432;2023-04-09T10:39:48;16.10;99.90
25300;DHT22;13241;51.208;4.432;2023-04-09T10:42:22;16.00;99.90
25300;DHT22;13241;51.208;4.432;2023-04-09T10:45:12;16.10;99.90
25300;DHT22;13241;51.208;4.432;2023-04-09T10:47:42;16.20;99.90
25300;DHT22;13241;51.208;4.432;2023-04-09T10:52:46;16.60;99.90
25300;DHT22;13241;51.208;4.432;2023-04-09T10:55:35;16.60;99.90
25300;DHT22;13241;51.208;4.432;2023-04-09T10:58:07;16.80;99.90
25300;DHT22;13241;51.208;4.432;2023-04-09T11:00:40;16.90;99.90
25300;DHT22;13241;51.208;4.432;2023-04-09T11:03:24;17.00;99.90
25300;DHT22;13241;51.208;4.432;2023-04-09T11:06:04;16.90;99.90
25300;DHT22;13241;51.208;4.432;2023-04-09T11:08:35;16.30;99.90
25300;DHT22;13241;51.208;4.432;2023-04-09T11:11:03;16.40;99.90
25300;DHT22;13241;51.208;4.432;2023-04-09T11:13:31;16.40;99.90
25300;DHT22;13241;51.208;4.432;2023-04-09T11:15:58;16.40;99.90
25300;DHT22;13241;51.208;4.432;2023-04-09T11:18:29;16.30;99.90
25300;DHT22;13241;51.208;4.432;2023-04-09T11:20:58;16.30;99.90
25300;DHT22;13241;51.208;4.432;2023-04-09T11:23:25;16.30;99.90
25300;DHT22;13241;51.208;4.432;2023-04-09T11:25:52;16.40;99.90
25300;DHT22;13241;51.208;4.432;2023-04-09T11:28:20;16.50;99.90
25300;DHT22;13241;51.208;4.432;2023-04-09T11:30:49;16.50;99.90
25300;DHT22;13241;51.208;4.432;2023-04-09T11:33:16;16.70;99.90
25300;DHT22;13241;51.208;4.432;2023-04-09T11:35:46;16.80;99.90
25300;DHT22;13241;51.208;4.432;2023-04-09T11:38:13;17.00;99.90
25300;DHT22;13241;51.208;4.432;2023-04-09T11:40:41;17.10;99.90
25300;DHT22;13241;51.208;4.432;2023-04-09T11:43:13;17.20;99.90
25300;DHT22;13241;51.208;4.432;2023-04-09T11:45:42;17.40;99.90
25300;DHT22;13241;51.208;4.432;2023-04-09T11:48:10;17.60;99.90
25300;DHT22;13241;51.208;4.432;2023-04-09T11:53:35;17.80;99.90
25300;DHT22;13241;51.208;4.432;2023-04-09T11:56:03;17.50;99.90
25300;DHT22;13241;51.208;4.432;2023-04-09T11:58:30;17.50;99.90
25300;DHT22;13241;51.208;4.432;2023-04-09T12:00:57;17.50;99.90
25300;DHT22;13241;51.208;4.432;2023-04-09T12:03:30;17.50;99.90
25300;DHT22;13241;51.208;4.432;2023-04-09T12:06:01;17.60;99.90
25300;DHT22;13241;51.208;4.432;2023-04-09T12:08:28;17.60;99.90
25300;DHT22;13241;51.208;4.432;2023-04-09T12:11:04;17.80;99.90
25300;DHT22;13241;51.208;4.432;2023-04-09T12:13:32;17.90;99.90
25300;DHT22;13241;51.208;4.432;2023-04-09T12:16:00;17.90;99.90
25300;DHT22;13241;51.208;4.432;2023-04-09T12:18:28;17.80;99.90
25300;DHT22;13241;51.208;4.432;2023-04-09T12:20:55;17.40;99.90
25300;DHT22;13241;51.208;4.432;2023-04-09T12:23:22;17.40;99.90
25300;DHT22;13241;51.208;4.432;2023-04-09T12:25:49;17.50;99.90
25300;DHT22;13241;51.208;4.432;2023-04-09T12:28:16;17.80;99.90
25300;DHT22;13241;51.208;4.432;2023-04-09T12:30:44;17.90;99.90
25300;DHT22;13241;51.208;4.432;2023-04-09T12:33:11;18.10;99.90
25300;DHT22;13241;51.208;4.432;2023-04-09T12:35:38;18.20;99.90
25300;DHT22;13241;51.208;4.432;2023-04-09T12:38:05;18.00;99.90
25300;DHT22;13241;51.208;4.432;2023-04-09T12:40:32;17.90;99.90
25300;DHT22;13241;51.208;4.432;2023-04-09T12:43:00;17.80;99.90
25300;DHT22;13241;51.208;4.432;2023-04-09T12:45:28;17.80;99.90
25300;DHT22;13241;51.208;4.432;2023-04-09T12:47:56;18.00;99.90
25300;DHT22;13241;51.208;4.432;2023-04-09T12:50:23;18.30;99.90
25300;DHT22;13241;51.208;4.432;2023-04-09T12:52:50;18.30;99.90
25300;DHT22;13241;51.208;4.432;2023-04-09T12:55:16;18.30;99.90
25300;DHT22;13241;51.208;4.432;2023-04-09T12:57:44;18.40;99.90
25300;DHT22;13241;51.208;4.432;2023-04-09T13:00:13;18.50;99.90
25300;DHT22;13241;51.208;4.432;2023-04-09T13:02:40;18.60;99.90
25300;DHT22;13241;51.208;4.432;2023-04-09T13:05:07;18.80;99.90
25300;DHT22;13241;51.208;4.432;2023-04-09T13:07:34;18.80;99.90
25300;DHT22;13241;51.208;4.432;2023-04-09T13:10:01;18.90;99.90
25300;DHT22;13241;51.208;4.432;2023-04-09T13:12:28;18.70;99.90
25300;DHT22;13241;51.208;4.432;2023-04-09T13:14:55;18.40;99.90
25300;DHT22;13241;51.208;4.432;2023-04-09T13:17:22;18.50;99.90
25300;DHT22;13241;51.208;4.432;2023-04-09T13:19:50;18.30;99.90
25300;DHT22;13241;51.208;4.432;2023-04-09T13:22:18;18.20;99.90
25300;DHT22;13241;51.208;4.432;2023-04-09T13:24:44;18.10;99.90
25300;DHT22;13241;51.208;4.432;2023-04-09T13:27:11;17.90;99.90
25300;DHT22;13241;51.208;4.432;2023-04-09T13:29:38;18.00;99.90
25300;DHT22;13241;51.208;4.432;2023-04-09T13:32:05;18.00;99.90
25300;DHT22;13241;51.208;4.432;2023-04-09T13:34:33;18.30;99.90
25300;DHT22;13241;51.208;4.432;2023-04-09T13:37:01;18.30;99.90
25300;DHT22;13241;51.208;4.432;2023-04-09T13:39:28;18.50;99.90
25300;DHT22;13241;51.208;4.432;2023-04-09T13:41:55;18.80;99.90
25300;DHT22;13241;51.208;4.432;2023-04-09T13:44:23;19.00;99.90
25300;DHT22;13241;51.208;4.432;2023-04-09T13:46:50;19.10;99.90
25300;DHT22;13241;51.208;4.432;2023-04-09T13:49:17;19.00;99.90
25300;DHT22;13241;51.208;4.432;2023-04-09T13:51:44;19.10;99.90
25300;DHT22;13241;51.208;4.432;2023-04-09T13:54:11;18.80;99.90
25300;DHT22;13241;51.208;4.432;2023-04-09T13:56:38;19.10;99.90
25300;DHT22;13241;51.208;4.432;2023-04-09T13:59:05;19.10;99.90
25300;DHT22;13241;51.208;4.432;2023-04-09T14:01:33;19.10;99.90
25300;DHT22;13241;51.208;4.432;2023-04-09T14:04:00;19.00;99.90
25300;DHT22;13241;51.208;4.432;2023-04-09T14:06:27;19.00;99.90
25300;DHT22;13241;51.208;4.432;2023-04-09T14:08:54;19.00;99.90
25300;DHT22;13241;51.208;4.432;2023-04-09T14:11:21;18.80;99.90
25300;DHT22;13241;51.208;4.432;2023-04-09T14:13:48;18.60;99.90
25300;DHT22;13241;51.208;4.432;2023-04-09T14:16:15;18.70;99.90
25300;DHT22;13241;51.208;4.432;2023-04-09T14:18:42;18.70;99.90
25300;DHT22;13241;51.208;4.432;2023-04-09T14:21:08;18.50;99.90
25300;DHT22;13241;51.208;4.432;2023-04-09T14:23:37;18.50;99.90
25300;DHT22;13241;51.208;4.432;2023-04-09T14:26:05;18.70;99.90
25300;DHT22;13241;51.208;4.432;2023-04-09T14:28:32;18.60;99.90
25300;DHT22;13241;51.208;4.432;2023-04-09T14:30:58;18.70;99.90
25300;DHT22;13241;51.208;4.432;2023-04-09T14:33:25;18.80;99.90
25300;DHT22;13241;51.208;4.432;2023-04-09T14:35:52;18.70;99.90
25300;DHT22;13241;51.208;4.432;2023-04-09T14:38:19;18.70;99.90
25300;DHT22;13241;51.208;4.432;2023-04-09T14:40:46;18.80;99.90
25300;DHT22;13241;51.208;4.432;2023-04-09T14:43:13;18.80;99.90
25300;DHT22;13241;51.208;4.432;2023-04-09T14:45:40;18.80;99.90
25300;DHT22;13241;51.208;4.432;2023-04-09T14:48:07;18.70;99.90
25300;DHT22;13241;51.208;4.432;2023-04-09T14:50:34;18.80;99.90
25300;DHT22;13241;51.208;4.432;2023-04-09T14:53:05;18.90;99.90
25300;DHT22;13241;51.208;4.432;2023-04-09T14:55:32;18.70;99.90
25300;DHT22;13241;51.208;4.432;2023-04-09T14:57:59;18.60;99.90
25300;DHT22;13241;51.208;4.432;2023-04-09T15:00:29;18.40;99.90
25300;DHT22;13241;51.208;4.432;2023-04-09T15:02:57;18.10;99.90
25300;DHT22;13241;51.208;4.432;2023-04-09T15:05:24;17.90;99.90
25300;DHT22;13241;51.208;4.432;2023-04-09T15:07:51;17.80;99.90
25300;DHT22;13241;51.208;4.432;2023-04-09T15:10:18;17.80;99.90
25300;DHT22;13241;51.208;4.432;2023-04-09T15:12:44;17.70;99.90
25300;DHT22;13241;51.208;4.432;2023-04-09T15:15:11;17.60;99.90
25300;DHT22;13241;51.208;4.432;2023-04-09T15:17:39;17.90;99.90
25300;DHT22;13241;51.208;4.432;2023-04-09T15:20:07;18.00;99.90
25300;DHT22;13241;51.208;4.432;2023-04-09T15:22:34;18.20;99.90
25300;DHT22;13241;51.208;4.432;2023-04-09T15:25:00;18.30;99.90
25300;DHT22;13241;51.208;4.432;2023-04-09T15:27:27;18.30;99.90
25300;DHT22;13241;51.208;4.432;2023-04-09T15:29:54;18.30;99.90
25300;DHT22;13241;51.208;4.432;2023-04-09T15:32:21;18.40;99.90
25300;DHT22;13241;51.208;4.432;2023-04-09T15:34:49;18.50;99.90
25300;DHT22;13241;51.208;4.432;2023-04-09T15:37:15;18.30;99.90
25300;DHT22;13241;51.208;4.432;2023-04-09T15:39:42;18.30;99.90
25300;DHT22;13241;51.208;4.432;2023-04-09T15:42:09;18.40;99.90
25300;DHT22;13241;51.208;4.432;2023-04-09T15:44:39;18.40;99.90
25300;DHT22;13241;51.208;4.432;2023-04-09T15:47:06;18.40;99.90
25300;DHT22;13241;51.208;4.432;2023-04-09T15:49:34;18.50;99.90
25300;DHT22;13241;51.208;4.432;2023-04-09T15:52:02;18.40;99.90
25300;DHT22;13241;51.208;4.432;2023-04-09T15:54:29;18.50;99.90
25300;DHT22;13241;51.208;4.432;2023-04-09T15:56:56;18.50;99.90
25300;DHT22;13241;51.208;4.432;2023-04-09T15:59:23;18.50;99.90
25300;DHT22;13241;51.208;4.432;2023-04-09T16:01:51;18.50;99.90
25300;DHT22;13241;51.208;4.432;2023-04-09T16:04:18;18.40;99.90
25300;DHT22;13241;51.208;4.432;2023-04-09T16:06:45;18.40;99.90